Terminal Aerodrome Forecast
Issued by NWS State College, PA

Home | Current Version | Previous Version | Text Only | Print | Product List | Glossary On
Versions: 1 2 3 4 5 6 7 8 9 10 11 12 13 14 15 16 17 18 19 20 21 22 23 24 25 26 27 28 29
000
FTUS41 KCTP 161204 RRA
TAFIPT
TAF
KIPT 161204Z 1612/1712 VRB03KT P6SM BKN250
      TEMPO 1612/1613 BKN007
     FM162000 VRB03KT P6SM OVC100
     FM170000 VRB03KT P6SM OVC050
     FM170400 08003KT 5SM BR OVC025
     FM170700 09003KT 4SM -FZRA BR OVC010=

USA.gov is the U.S. government's official web portal to all federal, state and local government web resources and services.